createdAt,value
2022-11-09T00:01:42.669Z,12.55
2022-11-09T00:04:10.098Z,12.68
2022-11-09T00:06:36.911Z,12.61
2022-11-09T00:09:07.828Z,12.63
2022-11-09T00:11:35.267Z,12.66
2022-11-09T00:14:01.630Z,12.63
2022-11-09T00:16:27.963Z,12.61
2022-11-09T00:18:54.327Z,12.57
2022-11-09T00:21:22.669Z,12.61
2022-11-09T00:23:49.982Z,12.71
2022-11-09T00:26:19.128Z,12.76
2022-11-09T00:28:45.681Z,12.71
2022-11-09T00:31:14.859Z,12.89
2022-11-09T00:33:41.333Z,12.97
2022-11-09T00:36:11.339Z,13.09
2022-11-09T00:38:38.834Z,13.13
2022-11-09T00:41:06.291Z,13.33
2022-11-09T00:43:32.973Z,13.42
2022-11-09T00:45:59.596Z,13.39
2022-11-09T00:48:26.254Z,13.54
2022-11-09T00:50:57.263Z,13.56
2022-11-09T00:53:24.659Z,13.61
2022-11-09T00:55:58.503Z,13.63
2022-11-09T00:58:26.681Z,13.75
2022-11-09T01:00:53.500Z,13.77
2022-11-09T01:03:21.080Z,13.83
2022-11-09T01:05:47.874Z,13.78
2022-11-09T01:08:14.610Z,13.83
2022-11-09T01:10:46.175Z,13.77
2022-11-09T01:13:15.787Z,13.78
2022-11-09T01:15:44.415Z,13.74
2022-11-09T01:18:10.813Z,13.73
2022-11-09T01:20:42.156Z,13.82
2022-11-09T01:23:10.063Z,13.78
2022-11-09T01:25:37.072Z,13.83
2022-11-09T01:28:04.961Z,13.86
2022-11-09T01:30:34.721Z,13.82
2022-11-09T01:33:06.817Z,13.77
2022-11-09T01:35:34.808Z,13.90
2022-11-09T01:38:02.948Z,13.96
2022-11-09T01:40:30.862Z,13.91
2022-11-09T01:42:57.308Z,13.90
2022-11-09T01:45:29.229Z,13.95
2022-11-09T01:48:11.975Z,13.93
2022-11-09T01:50:42.060Z,13.96
2022-11-09T01:53:15.085Z,13.85
2022-11-09T01:55:42.350Z,13.83
2022-11-09T01:58:12.677Z,13.83
2022-11-09T02:00:44.359Z,13.96
2022-11-09T02:03:28.192Z,13.82
2022-11-09T02:05:54.733Z,13.86
2022-11-09T02:08:25.117Z,13.96
2022-11-09T02:11:11.817Z,13.84
2022-11-09T02:13:56.814Z,13.90
2022-11-09T02:16:23.885Z,13.86
2022-11-09T02:18:58.567Z,13.86
2022-11-09T02:21:27.885Z,13.86
2022-11-09T02:23:54.334Z,13.95
2022-11-09T02:26:42.770Z,13.90
2022-11-09T02:29:11.176Z,13.92
2022-11-09T02:31:41.717Z,13.89
2022-11-09T02:34:17.994Z,13.79
2022-11-09T02:36:44.400Z,13.88
2022-11-09T02:39:11.458Z,13.91
2022-11-09T02:42:02.905Z,13.82
2022-11-09T02:44:34.608Z,13.82
2022-11-09T02:47:00.913Z,13.81
2022-11-09T02:49:27.368Z,13.73
2022-11-09T02:51:53.714Z,13.79
2022-11-09T02:54:20.047Z,13.74
2022-11-09T02:56:46.367Z,13.70
2022-11-09T02:59:12.674Z,13.73
2022-11-09T03:01:39.103Z,13.68
2022-11-09T03:04:05.667Z,13.74
2022-11-09T03:06:32.086Z,13.79
2022-11-09T03:08:58.411Z,13.75
2022-11-09T03:11:24.700Z,13.75
2022-11-09T03:13:51.017Z,13.83
2022-11-09T03:16:17.314Z,13.77
2022-11-09T03:18:43.667Z,13.63
2022-11-09T03:21:09.967Z,13.53
2022-11-09T03:23:36.312Z,13.48
2022-11-09T03:26:02.841Z,13.55
2022-11-09T03:28:29.153Z,13.49
2022-11-09T03:30:55.455Z,13.34
2022-11-09T03:33:22.010Z,13.59
2022-11-09T03:35:48.964Z,13.59
2022-11-09T03:38:15.279Z,13.58
2022-11-09T03:40:41.588Z,13.52
2022-11-09T03:43:07.930Z,13.48
2022-11-09T03:45:34.656Z,13.39
2022-11-09T03:48:01.101Z,13.39
2022-11-09T03:50:30.014Z,13.33
2022-11-09T03:52:57.558Z,13.16
2022-11-09T03:55:24.622Z,13.09
2022-11-09T03:57:51.478Z,13.19
2022-11-09T04:00:22.069Z,13.17
2022-11-09T04:02:48.445Z,13.09
2022-11-09T04:05:14.935Z,13.06
2022-11-09T04:07:46.406Z,12.99
2022-11-09T04:10:12.718Z,13.02
2022-11-09T04:12:39.033Z,12.94
2022-11-09T04:15:05.885Z,13.02
2022-11-09T04:17:32.198Z,13.06
2022-11-09T04:19:58.498Z,13.21
2022-11-09T04:22:24.913Z,13.14
2022-11-09T04:24:51.205Z,13.24
2022-11-09T04:27:17.614Z,13.18
2022-11-09T04:29:44.076Z,13.16
2022-11-09T04:32:10.495Z,13.15
2022-11-09T04:34:36.831Z,13.13
2022-11-09T04:37:03.209Z,13.12
2022-11-09T04:39:29.590Z,12.97
2022-11-09T04:41:55.906Z,12.94
2022-11-09T04:44:22.197Z,12.92
2022-11-09T04:46:48.539Z,12.96
2022-11-09T04:49:14.854Z,12.96
2022-11-09T04:51:41.251Z,13.04
2022-11-09T04:54:07.569Z,13.07
2022-11-09T04:56:33.905Z,13.12
2022-11-09T04:59:00.203Z,13.07
2022-11-09T05:01:26.548Z,13.18
2022-11-09T05:03:52.929Z,13.18
2022-11-09T05:06:19.381Z,13.23
2022-11-09T05:08:45.695Z,13.21
2022-11-09T05:11:11.999Z,13.25
2022-11-09T05:13:38.293Z,13.24
2022-11-09T05:16:05.030Z,13.22
2022-11-09T05:18:31.413Z,13.23
2022-11-09T05:21:01.405Z,13.22
2022-11-09T05:23:27.998Z,13.21
2022-11-09T05:25:54.303Z,13.19
2022-11-09T05:28:20.610Z,12.98
2022-11-09T05:30:46.899Z,12.99
2022-11-09T05:33:13.232Z,13.10
2022-11-09T05:35:39.519Z,13.07
2022-11-09T05:38:05.834Z,13.07
2022-11-09T05:40:32.160Z,13.08
2022-11-09T05:42:58.481Z,13.07
2022-11-09T05:48:13.383Z,12.95
2022-11-09T05:50:40.309Z,13.01
2022-11-09T05:53:07.145Z,13.00
2022-11-09T05:55:33.751Z,13.04
2022-11-09T05:58:00.238Z,13.10
2022-11-09T06:00:26.998Z,13.03
2022-11-09T06:02:53.518Z,13.02
2022-11-09T06:05:19.981Z,13.11
2022-11-09T06:07:46.366Z,13.15
2022-11-09T06:10:12.745Z,13.25
2022-11-09T06:12:39.069Z,13.24
2022-11-09T06:15:06.127Z,13.13
2022-11-09T06:17:32.438Z,13.11
2022-11-09T06:19:58.831Z,13.27
2022-11-09T06:22:25.167Z,13.20
2022-11-09T06:24:51.552Z,13.18
2022-11-09T06:27:17.858Z,13.25
2022-11-09T06:29:44.202Z,13.18
2022-11-09T06:32:10.501Z,13.25
2022-11-09T06:34:36.814Z,13.20
2022-11-09T06:37:03.117Z,13.18
2022-11-09T06:39:29.447Z,13.16
2022-11-09T06:41:55.746Z,13.28
2022-11-09T06:44:22.071Z,13.38
2022-11-09T06:46:48.455Z,13.32
2022-11-09T06:49:14.766Z,13.34
2022-11-09T06:51:41.103Z,13.41
2022-11-09T06:54:07.440Z,13.38
2022-11-09T06:56:33.793Z,13.46
2022-11-09T06:59:00.090Z,13.56
2022-11-09T07:01:28.820Z,13.49
2022-11-09T07:03:55.616Z,13.45
2022-11-09T07:06:22.226Z,13.38
2022-11-09T07:08:53.736Z,13.38
2022-11-09T07:11:20.059Z,13.31
2022-11-09T07:13:47.923Z,13.33
2022-11-09T07:16:14.357Z,13.28
2022-11-09T07:18:40.671Z,13.37
2022-11-09T07:21:12.817Z,13.42
2022-11-09T07:23:41.210Z,13.28
2022-11-09T07:26:07.810Z,13.31
2022-11-09T07:28:34.998Z,13.28
2022-11-09T07:31:01.988Z,13.32
2022-11-09T07:33:28.348Z,13.33
2022-11-09T07:35:54.687Z,13.30
2022-11-09T07:38:21.047Z,13.29
2022-11-09T07:40:47.386Z,13.36
2022-11-09T07:43:13.718Z,13.38
2022-11-09T07:45:40.533Z,13.42
2022-11-09T07:48:11.633Z,13.35
2022-11-09T07:50:39.550Z,13.40
2022-11-09T07:53:06.857Z,13.45
2022-11-09T07:55:34.686Z,13.43
2022-11-09T07:58:04.389Z,13.60
2022-11-09T08:00:33.115Z,13.52
2022-11-09T08:02:59.758Z,13.42
2022-11-09T08:05:26.373Z,13.38
2022-11-09T08:08:04.651Z,13.46
2022-11-09T08:10:33.041Z,13.59
2022-11-09T08:13:07.967Z,13.62
2022-11-09T08:15:34.579Z,13.53
2022-11-09T08:18:02.718Z,13.62
2022-11-09T08:20:30.084Z,13.62
2022-11-09T08:23:01.035Z,13.67
2022-11-09T08:25:30.837Z,13.61
2022-11-09T08:27:57.302Z,13.70
2022-11-09T08:30:24.520Z,13.74
2022-11-09T08:32:51.001Z,13.69
2022-11-09T08:35:21.198Z,13.78
2022-11-09T08:37:50.713Z,13.90
2022-11-09T08:40:22.641Z,13.91
2022-11-09T08:42:49.379Z,13.89
2022-11-09T08:45:15.998Z,13.75
2022-11-09T08:47:42.801Z,13.78
2022-11-09T08:50:10.701Z,13.83
2022-11-09T08:52:37.092Z,13.87
2022-11-09T08:55:04.073Z,13.81
2022-11-09T08:57:30.876Z,13.82
2022-11-09T08:59:57.190Z,13.91
2022-11-09T09:02:23.570Z,13.94
2022-11-09T09:04:49.969Z,13.93
2022-11-09T09:07:16.360Z,13.87
2022-11-09T09:09:43.532Z,13.80
2022-11-09T09:12:10.249Z,13.99
2022-11-09T09:14:36.786Z,14.10
2022-11-09T09:17:03.884Z,14.27
2022-11-09T09:19:30.366Z,14.33
2022-11-09T09:21:56.696Z,14.25
2022-11-09T09:24:23.061Z,14.32
2022-11-09T09:26:49.402Z,14.32
2022-11-09T09:29:15.816Z,14.18
2022-11-09T09:31:42.180Z,14.04
2022-11-09T09:34:08.545Z,14.11
2022-11-09T09:36:34.913Z,14.21
2022-11-09T09:39:01.605Z,14.21
2022-11-09T09:41:38.119Z,14.11
2022-11-09T09:44:07.481Z,13.99
2022-11-09T09:47:12.458Z,13.86
2022-11-09T09:49:57.831Z,13.84
2022-11-09T09:52:29.588Z,13.90
2022-11-09T09:55:19.264Z,14.00
2022-11-09T09:57:52.905Z,14.27
2022-11-09T10:00:27.249Z,14.31
2022-11-09T10:02:54.321Z,14.19
2022-11-09T10:05:28.134Z,14.12
2022-11-09T10:08:20.127Z,14.36
2022-11-09T10:11:04.218Z,14.37
2022-11-09T10:13:45.728Z,14.41
2022-11-09T10:16:24.738Z,14.51
2022-11-09T10:19:11.277Z,14.49
2022-11-09T10:21:56.225Z,14.61
2022-11-09T10:24:48.547Z,14.62
2022-11-09T10:27:36.992Z,14.82
2022-11-09T10:30:24.580Z,15.02
2022-11-09T10:32:54.594Z,15.06
2022-11-09T10:35:26.628Z,15.03
2022-11-09T10:37:52.965Z,14.97
2022-11-09T10:40:34.331Z,14.63
2022-11-09T10:43:06.117Z,14.48
2022-11-09T10:45:38.054Z,14.51
2022-11-09T10:48:06.749Z,14.68
2022-11-09T10:50:50.896Z,14.79
2022-11-09T10:53:28.455Z,14.72
2022-11-09T10:56:20.375Z,14.75
2022-11-09T10:58:56.590Z,14.86
2022-11-09T11:01:36.940Z,14.95
2022-11-09T11:04:20.928Z,15.00
2022-11-09T11:06:47.343Z,14.82
2022-11-09T11:09:16.793Z,14.77
2022-11-09T11:11:43.120Z,14.99
2022-11-09T11:14:35.679Z,14.92
2022-11-09T11:17:02.492Z,14.82
2022-11-09T11:19:39.738Z,14.63
2022-11-09T11:22:12.074Z,14.59
2022-11-09T11:24:45.412Z,14.70
2022-11-09T11:27:21.582Z,14.80
2022-11-09T11:29:55.743Z,14.89
2022-11-09T11:32:23.666Z,15.08
2022-11-09T11:35:05.474Z,15.04
2022-11-09T11:37:50.296Z,14.89
2022-11-09T11:40:22.611Z,15.24
2022-11-09T11:43:13.800Z,15.31
2022-11-09T11:45:48.052Z,15.33
2022-11-09T11:48:23.239Z,15.59
2022-11-09T11:51:11.289Z,15.73
2022-11-09T11:53:46.834Z,15.69
2022-11-09T11:56:28.280Z,15.66
2022-11-09T11:59:00.659Z,15.85
2022-11-09T12:01:46.045Z,15.68
2022-11-09T12:04:32.266Z,15.68
2022-11-09T12:07:20.185Z,15.72
2022-11-09T12:10:13.890Z,15.67
2022-11-09T12:12:48.425Z,15.70
2022-11-09T12:15:36.764Z,15.66
2022-11-09T12:18:15.254Z,15.84
2022-11-09T12:20:53.254Z,15.77
2022-11-09T12:23:23.001Z,15.49
2022-11-09T12:26:16.288Z,15.28
2022-11-09T12:28:51.245Z,15.35
2022-11-09T12:31:42.950Z,15.49
2022-11-09T12:34:19.556Z,15.54
2022-11-09T12:37:03.932Z,15.46
2022-11-09T12:39:34.995Z,15.29
2022-11-09T12:42:17.974Z,15.07
2022-11-09T12:45:26.320Z,14.96
2022-11-09T12:47:55.753Z,14.88
2022-11-09T12:50:25.193Z,14.93
2022-11-09T12:52:52.745Z,14.83
2022-11-09T12:55:25.139Z,14.93
2022-11-09T12:57:51.525Z,14.91
2022-11-09T13:00:35.953Z,14.83
2022-11-09T13:03:06.214Z,14.94
2022-11-09T13:05:35.672Z,15.05
2022-11-09T13:08:05.405Z,15.18
2022-11-09T13:10:38.750Z,15.19
2022-11-09T13:13:11.217Z,15.28
2022-11-09T13:15:39.626Z,15.22
2022-11-09T13:18:25.980Z,15.32
2022-11-09T13:20:56.463Z,15.28
2022-11-09T13:23:47.671Z,15.49
2022-11-09T13:26:31.601Z,15.41
2022-11-09T13:29:42.662Z,15.36
2022-11-09T13:32:08.933Z,15.34
2022-11-09T13:34:53.244Z,15.18
2022-11-09T13:37:38.192Z,15.33
2022-11-09T13:40:32.567Z,15.33
2022-11-09T13:43:01.945Z,15.30
2022-11-09T13:45:34.334Z,15.29
2022-11-09T13:48:00.950Z,15.28
2022-11-09T13:50:30.377Z,15.23
2022-11-09T13:53:01.204Z,15.11
2022-11-09T13:55:39.170Z,15.09
2022-11-09T13:58:35.022Z,14.97
2022-11-09T14:01:01.329Z,15.09
2022-11-09T14:03:29.537Z,15.00
2022-11-09T14:05:59.165Z,15.08
2022-11-09T14:08:29.157Z,15.04
2022-11-09T14:11:22.686Z,14.85
2022-11-09T14:14:18.060Z,14.77
2022-11-09T14:16:56.206Z,14.62
2022-11-09T14:19:45.686Z,14.54
2022-11-09T14:22:16.910Z,14.56
2022-11-09T14:24:44.073Z,14.48
2022-11-09T14:27:10.421Z,14.59
2022-11-09T14:29:46.361Z,14.57
2022-11-09T14:32:24.679Z,14.61
2022-11-09T14:34:51.024Z,14.59
2022-11-09T14:37:18.302Z,14.55
2022-11-09T14:39:51.294Z,14.57
2022-11-09T14:42:20.519Z,14.58
2022-11-09T14:44:48.024Z,14.51
2022-11-09T14:47:19.960Z,14.29
2022-11-09T14:49:46.949Z,14.32
2022-11-09T14:52:17.884Z,14.15
2022-11-09T14:54:45.901Z,14.02
2022-11-09T14:57:15.533Z,13.92
2022-11-09T14:59:44.222Z,13.89
2022-11-09T15:02:13.584Z,13.87
2022-11-09T15:04:59.403Z,13.90
2022-11-09T15:07:30.230Z,13.77
2022-11-09T15:10:00.459Z,13.71
2022-11-09T15:12:27.404Z,13.57
2022-11-09T15:14:57.027Z,13.65
2022-11-09T15:17:45.955Z,13.52
2022-11-09T15:20:12.206Z,13.48
2022-11-09T15:22:47.639Z,13.45
2022-11-09T15:25:32.219Z,13.61
2022-11-09T15:28:13.856Z,13.50
2022-11-09T15:30:46.418Z,13.56
2022-11-09T15:33:18.077Z,13.62
2022-11-09T15:35:52.215Z,13.66
2022-11-09T15:38:37.610Z,13.60
2022-11-09T15:41:11.143Z,13.57
2022-11-09T15:43:37.785Z,13.61
2022-11-09T15:46:04.591Z,13.49
2022-11-09T15:48:31.696Z,13.39
2022-11-09T15:50:58.353Z,13.42
2022-11-09T15:53:25.284Z,13.53
2022-11-09T15:55:51.659Z,13.36
2022-11-09T15:58:18.968Z,13.29
2022-11-09T16:00:46.166Z,13.45
2022-11-09T16:03:13.154Z,13.50
2022-11-09T16:05:39.498Z,13.60
2022-11-09T16:08:05.846Z,13.50
2022-11-09T16:10:32.165Z,13.43
2022-11-09T16:12:58.513Z,13.38
2022-11-09T16:15:25.739Z,13.38
2022-11-09T16:17:52.603Z,13.30
2022-11-09T16:20:20.347Z,13.26
2022-11-09T16:22:47.666Z,13.17
2022-11-09T16:25:15.093Z,13.14
2022-11-09T16:27:50.920Z,13.10
2022-11-09T16:30:19.037Z,13.23
2022-11-09T16:32:45.346Z,13.15
2022-11-09T16:35:28.294Z,13.05
2022-11-09T16:37:56.044Z,12.87
2022-11-09T16:40:22.723Z,12.78
2022-11-09T16:42:51.466Z,12.79
2022-11-09T16:45:17.813Z,12.61
2022-11-09T16:47:50.744Z,12.62
2022-11-09T16:50:17.638Z,12.62
2022-11-09T16:52:44.094Z,12.52
2022-11-09T16:55:10.508Z,12.46
2022-11-09T16:57:36.910Z,12.41
2022-11-09T17:00:05.699Z,12.49
2022-11-09T17:02:32.046Z,12.37
2022-11-09T17:04:58.438Z,12.36
2022-11-09T17:07:25.006Z,12.25
2022-11-09T17:09:51.333Z,12.18
2022-11-09T17:12:17.677Z,12.22
2022-11-09T17:14:43.983Z,12.29
2022-11-09T17:17:10.366Z,12.29
2022-11-09T17:19:37.281Z,12.30
2022-11-09T17:22:04.052Z,12.44
2022-11-09T17:24:31.316Z,12.39
2022-11-09T17:26:57.610Z,12.44
2022-11-09T17:29:23.938Z,12.49
2022-11-09T17:31:50.953Z,12.32
2022-11-09T17:34:17.293Z,12.32
2022-11-09T17:37:02.957Z,12.29
2022-11-09T17:39:29.913Z,12.28
2022-11-09T17:41:56.324Z,12.31
2022-11-09T17:44:22.667Z,12.19
2022-11-09T17:46:48.985Z,12.39
2022-11-09T17:49:15.402Z,12.33
2022-11-09T17:51:41.745Z,12.43
2022-11-09T17:54:08.107Z,12.33
2022-11-09T17:56:34.542Z,12.26
2022-11-09T17:59:00.962Z,12.16
2022-11-09T18:01:27.336Z,11.95
2022-11-09T18:03:53.697Z,11.91
2022-11-09T18:06:22.152Z,11.76
2022-11-09T18:09:09.571Z,11.77
2022-11-09T18:11:36.105Z,11.68
2022-11-09T18:14:02.566Z,11.81
2022-11-09T18:16:28.921Z,11.71
2022-11-09T18:19:02.721Z,11.67
2022-11-09T18:21:29.296Z,11.67
2022-11-09T18:23:55.970Z,11.73
2022-11-09T18:26:22.315Z,11.63
2022-11-09T18:28:48.618Z,11.55
2022-11-09T18:31:15.041Z,11.61
2022-11-09T18:33:41.802Z,11.64
2022-11-09T18:36:11.695Z,11.61
2022-11-09T18:38:39.140Z,11.62
2022-11-09T18:41:13.705Z,11.63
2022-11-09T18:43:41.244Z,11.65
2022-11-09T18:46:10.639Z,11.54
2022-11-09T18:48:37.373Z,11.54
2022-11-09T18:51:05.585Z,11.60
2022-11-09T18:53:38.249Z,11.62
2022-11-09T18:56:07.883Z,11.47
2022-11-09T18:58:35.007Z,11.61
2022-11-09T19:01:04.228Z,11.65
2022-11-09T19:03:31.496Z,11.70
2022-11-09T19:05:58.079Z,11.65
2022-11-09T19:08:24.652Z,11.50
2022-11-09T19:10:50.994Z,11.55
2022-11-09T19:13:17.334Z,11.62
2022-11-09T19:15:45.365Z,11.63
2022-11-09T19:18:11.879Z,11.58
2022-11-09T19:20:39.049Z,11.58
2022-11-09T19:23:05.373Z,11.60
2022-11-09T19:25:31.722Z,11.51
2022-11-09T19:27:58.049Z,11.43
2022-11-09T19:30:24.374Z,11.38
2022-11-09T19:32:50.793Z,11.41
2022-11-09T19:35:21.830Z,11.58
2022-11-09T19:37:51.963Z,11.51
2022-11-09T19:40:18.431Z,11.57
2022-11-09T19:42:45.962Z,11.70
2022-11-09T19:45:12.403Z,11.71
2022-11-09T19:47:39.558Z,11.59
2022-11-09T19:50:06.698Z,11.58
2022-11-09T19:52:33.173Z,11.45
2022-11-09T19:54:59.559Z,11.61
2022-11-09T19:57:25.865Z,11.57
2022-11-09T19:59:52.205Z,11.58
2022-11-09T20:02:18.533Z,11.51
2022-11-09T20:04:44.889Z,11.44
2022-11-09T20:07:13.880Z,11.58
2022-11-09T20:09:40.298Z,11.54
2022-11-09T20:12:06.928Z,11.56
2022-11-09T20:14:33.343Z,11.54
2022-11-09T20:17:03.380Z,11.57
2022-11-09T20:19:30.110Z,11.49
2022-11-09T20:21:56.674Z,11.60
2022-11-09T20:24:26.054Z,11.72
2022-11-09T20:26:52.467Z,11.63
2022-11-09T20:29:18.819Z,11.65
2022-11-09T20:31:45.150Z,11.72
2022-11-09T20:34:11.767Z,11.69
2022-11-09T20:36:39.260Z,11.66
2022-11-09T20:39:05.955Z,11.79
2022-11-09T20:41:35.335Z,11.83
2022-11-09T20:44:01.775Z,11.80
2022-11-09T20:46:34.379Z,11.82
2022-11-09T20:49:02.852Z,11.86
2022-11-09T20:51:29.539Z,11.84
2022-11-09T20:54:02.428Z,11.90
2022-11-09T20:56:31.946Z,11.84
2022-11-09T20:58:58.290Z,11.82
2022-11-09T21:01:24.827Z,11.62
2022-11-09T21:03:51.515Z,11.73
2022-11-09T21:06:18.426Z,11.82
2022-11-09T21:08:46.700Z,11.79
2022-11-09T21:11:13.625Z,11.81
2022-11-09T21:13:40.497Z,11.79
2022-11-09T21:16:15.058Z,11.67
2022-11-09T21:18:42.305Z,11.74
2022-11-09T21:21:14.932Z,11.72
2022-11-09T21:23:41.805Z,11.70
2022-11-09T21:26:08.840Z,11.50
2022-11-09T21:28:38.093Z,11.56
2022-11-09T21:31:04.533Z,11.44
2022-11-09T21:33:30.860Z,11.30
2022-11-09T21:35:57.739Z,11.19
2022-11-09T21:38:24.237Z,11.11
2022-11-09T21:40:52.884Z,11.12
2022-11-09T21:43:19.549Z,11.06
2022-11-09T21:45:49.559Z,11.03
2022-11-09T21:48:15.926Z,11.07
2022-11-09T21:50:42.483Z,10.97
2022-11-09T21:53:08.793Z,11.00
2022-11-09T21:55:35.100Z,10.95
2022-11-09T21:58:01.453Z,10.85
2022-11-09T22:00:27.776Z,10.90
2022-11-09T22:02:54.106Z,10.85
2022-11-09T22:05:22.954Z,10.86
2022-11-09T22:07:49.633Z,10.76
2022-11-09T22:10:16.135Z,10.79
2022-11-09T22:12:42.475Z,10.67
2022-11-09T22:15:10.565Z,10.71
2022-11-09T22:17:36.886Z,10.71
2022-11-09T22:20:03.602Z,10.79
2022-11-09T22:22:31.223Z,10.70
2022-11-09T22:24:58.168Z,10.76
2022-11-09T22:27:24.700Z,10.79
2022-11-09T22:29:51.239Z,10.84
2022-11-09T22:32:17.697Z,10.83
2022-11-09T22:34:44.040Z,10.92
2022-11-09T22:37:10.362Z,10.96
2022-11-09T22:39:36.725Z,10.96
2022-11-09T22:42:03.163Z,11.02
2022-11-09T22:44:29.484Z,10.97
2022-11-09T22:46:55.831Z,10.98
2022-11-09T22:49:22.137Z,10.96
2022-11-09T22:51:48.491Z,10.89
2022-11-09T22:54:14.836Z,10.90
2022-11-09T22:56:41.169Z,10.91
2022-11-09T22:59:08.108Z,10.86
2022-11-09T23:01:34.568Z,10.95
2022-11-09T23:04:00.917Z,11.06
2022-11-09T23:06:27.273Z,11.08
2022-11-09T23:08:53.713Z,10.97
2022-11-09T23:11:22.705Z,11.01
2022-11-09T23:13:51.430Z,11.01
2022-11-09T23:16:18.583Z,11.00
2022-11-09T23:18:45.020Z,10.98
2022-11-09T23:21:11.763Z,10.93
2022-11-09T23:23:38.838Z,11.01
2022-11-09T23:26:06.651Z,11.00
2022-11-09T23:28:33.681Z,11.07
2022-11-09T23:31:02.223Z,11.02
2022-11-09T23:33:29.221Z,11.08
2022-11-09T23:35:56.689Z,11.14
2022-11-09T23:38:24.052Z,11.05
2022-11-09T23:40:50.373Z,11.11
2022-11-09T23:43:17.261Z,11.04
2022-11-09T23:45:44.093Z,11.10
2022-11-09T23:48:17.332Z,11.07
2022-11-09T23:50:44.889Z,11.02
2022-11-09T23:53:11.826Z,11.03
2022-11-09T23:55:39.096Z,10.98
2022-11-09T23:58:08.251Z,11.06
